createdAt,value
2019-01-26T00:00:09.802Z,4.71
2019-01-26T00:01:09.877Z,4.74
2019-01-26T00:02:09.619Z,4.71
2019-01-26T00:03:09.535Z,4.71
2019-01-26T00:04:09.657Z,4.77
2019-01-26T00:05:09.366Z,4.72
2019-01-26T00:06:09.285Z,4.77
2019-01-26T00:07:09.271Z,4.71
2019-01-26T00:08:09.097Z,4.69
2019-01-26T00:09:09.011Z,4.71
2019-01-26T00:10:09.084Z,4.72
2019-01-26T00:11:08.850Z,4.86
2019-01-26T00:12:08.893Z,4.80
2019-01-26T00:13:08.662Z,4.77
2019-01-26T00:14:08.698Z,4.77
2019-01-26T00:15:08.494Z,4.77
2019-01-26T00:16:08.540Z,4.80
2019-01-26T00:17:08.317Z,4.86
2019-01-26T00:18:08.315Z,4.83
2019-01-26T00:19:08.146Z,4.87
2019-01-26T00:20:08.126Z,4.88
2019-01-26T00:21:07.993Z,4.87
2019-01-26T00:22:07.936Z,4.83
2019-01-26T00:23:07.796Z,4.87
2019-01-26T00:24:07.741Z,4.80
2019-01-26T00:25:07.620Z,4.84
2019-01-26T00:26:07.581Z,4.80
2019-01-26T00:27:07.448Z,4.84
2019-01-26T00:28:07.562Z,4.84
2019-01-26T00:29:07.287Z,4.86
2019-01-26T00:30:07.377Z,4.87
2019-01-26T00:31:07.116Z,4.86
2019-01-26T00:32:07.182Z,4.90
2019-01-26T00:33:06.927Z,4.87
2019-01-26T00:34:06.850Z,4.87
2019-01-26T00:35:06.759Z,4.88
2019-01-26T00:36:06.839Z,4.90
2019-01-26T00:37:06.582Z,4.99
2019-01-26T00:38:06.495Z,4.99
2019-01-26T00:39:06.614Z,4.94
2019-01-26T00:40:06.332Z,4.94
2019-01-26T00:41:06.253Z,5.02
2019-01-26T00:42:06.225Z,4.99
2019-01-26T00:43:06.060Z,4.91
2019-01-26T00:44:05.972Z,4.88
2019-01-26T00:45:06.039Z,4.90
2019-01-26T00:46:05.813Z,4.96
2019-01-26T00:47:05.714Z,4.94
2019-01-26T00:48:05.647Z,5.01
2019-01-26T00:49:05.539Z,4.88
2019-01-26T00:50:06.506Z,4.99
2019-01-26T00:51:05.384Z,4.96
2019-01-26T00:52:05.396Z,4.96
2019-01-26T00:53:05.194Z,4.94
2019-01-26T00:54:05.276Z,4.97
2019-01-26T00:55:05.020Z,5.02
2019-01-26T00:56:05.150Z,5.02
2019-01-26T00:57:04.869Z,4.94
2019-01-26T00:58:04.894Z,5.02
2019-01-26T00:59:04.708Z,5.05
2019-01-26T01:00:04.702Z,5.02
2019-01-26T01:01:04.507Z,5.06
2019-01-26T01:02:04.439Z,5.06
2019-01-26T01:03:04.331Z,5.05
2019-01-26T01:04:04.246Z,5.11
2019-01-26T01:05:04.164Z,5.06
2019-01-26T01:06:04.072Z,4.99
2019-01-26T01:07:04.000Z,5.02
2019-01-26T01:08:03.903Z,5.06
2019-01-26T01:09:03.808Z,5.09
2019-01-26T01:10:03.720Z,5.06
2019-01-26T01:11:03.637Z,5.04
2019-01-26T01:12:03.569Z,5.04
2019-01-26T01:13:03.472Z,5.08
2019-01-26T01:14:03.382Z,5.09
2019-01-26T01:15:03.293Z,5.14
2019-01-26T01:16:03.214Z,5.15
2019-01-26T01:17:03.131Z,5.02
2019-01-26T01:18:03.026Z,5.14
2019-01-26T01:19:03.025Z,5.11
2019-01-26T01:20:02.854Z,5.06
2019-01-26T01:21:02.791Z,5.06
2019-01-26T01:22:02.762Z,5.06
2019-01-26T01:23:02.599Z,5.06
2019-01-26T01:24:02.515Z,5.11
2019-01-26T01:25:02.434Z,5.05
2019-01-26T01:26:02.339Z,5.11
2019-01-26T01:27:02.268Z,5.11
2019-01-26T01:28:03.190Z,5.19
2019-01-26T01:29:02.076Z,5.24
2019-01-26T01:30:01.992Z,5.19
2019-01-26T01:31:01.976Z,5.19
2019-01-26T01:32:01.839Z,5.09
2019-01-26T01:33:01.732Z,5.17
2019-01-26T01:34:01.695Z,5.14
2019-01-26T01:35:01.555Z,5.19
2019-01-26T01:36:01.472Z,5.14
2019-01-26T01:37:01.436Z,5.19
2019-01-26T01:38:01.303Z,5.23
2019-01-26T01:39:01.216Z,5.32
2019-01-26T01:40:01.225Z,5.23
2019-01-26T01:41:01.042Z,5.22
2019-01-26T01:42:01.067Z,5.30
2019-01-26T01:43:00.864Z,5.22
2019-01-26T01:44:00.779Z,5.22
2019-01-26T01:45:00.744Z,5.37
2019-01-26T01:46:00.603Z,5.29
2019-01-26T01:47:00.542Z,5.35
2019-01-26T01:48:00.456Z,5.32
2019-01-26T01:49:00.346Z,5.42
2019-01-26T01:50:00.266Z,5.30
2019-01-26T01:51:01.193Z,5.33
2019-01-26T01:52:00.090Z,5.38
2019-01-26T01:53:00.116Z,5.41
2019-01-26T01:53:59.920Z,5.47
2019-01-26T01:54:59.825Z,5.38
2019-01-26T01:56:14.745Z,5.41
2019-01-26T01:56:59.656Z,5.48
2019-01-26T01:57:59.587Z,5.42
2019-01-26T01:58:59.506Z,5.41
2019-01-26T01:59:59.393Z,5.45
2019-01-26T02:00:59.307Z,5.49
2019-01-26T02:01:59.323Z,5.48
2019-01-26T02:02:59.148Z,5.55
2019-01-26T02:03:59.055Z,5.56
2019-01-26T02:04:59.046Z,5.47
2019-01-26T02:05:58.875Z,5.47
2019-01-26T02:06:58.791Z,5.51
2019-01-26T02:07:58.783Z,5.47
2019-01-26T02:08:58.629Z,5.58
2019-01-26T02:09:58.534Z,5.60
2019-01-26T02:10:58.466Z,5.60
2019-01-26T02:11:58.356Z,5.58
2019-01-26T02:12:58.289Z,5.47
2019-01-26T02:13:59.206Z,5.55
2019-01-26T02:14:58.099Z,5.62
2019-01-26T02:15:58.089Z,5.65
2019-01-26T02:16:57.926Z,5.58
2019-01-26T02:17:57.935Z,5.52
2019-01-26T02:18:57.755Z,5.48
2019-01-26T02:19:57.707Z,5.58
2019-01-26T02:20:57.585Z,5.63
2019-01-26T02:21:57.517Z,5.48
2019-01-26T02:22:57.412Z,5.56
2019-01-26T02:23:57.365Z,5.58
2019-01-26T02:24:57.242Z,5.55
2019-01-26T02:25:57.312Z,5.56
2019-01-26T02:26:57.069Z,5.55
2019-01-26T02:27:57.046Z,5.59
2019-01-26T02:28:56.903Z,5.63
2019-01-26T02:29:56.856Z,5.66
2019-01-26T02:30:56.722Z,5.58
2019-01-26T02:31:56.672Z,5.59
2019-01-26T02:32:56.543Z,5.59
2019-01-26T02:33:56.515Z,5.51
2019-01-26T02:34:56.372Z,5.58
2019-01-26T02:35:56.284Z,5.66
2019-01-26T02:36:58.211Z,5.67
2019-01-26T02:37:56.111Z,5.66
2019-01-26T02:38:56.039Z,5.55
2019-01-26T02:39:56.003Z,5.58
2019-01-26T02:40:55.861Z,5.62
2019-01-26T02:42:12.812Z,5.73
2019-01-26T02:42:55.684Z,5.66
2019-01-26T02:43:55.654Z,5.59
2019-01-26T02:44:55.512Z,5.70
2019-01-26T02:45:55.425Z,5.67
2019-01-26T02:46:58.036Z,5.62
2019-01-26T02:47:55.245Z,5.75
2019-01-26T02:48:55.191Z,5.65
2019-01-26T02:49:55.149Z,5.73
2019-01-26T02:50:54.993Z,5.75
2019-01-26T02:51:54.963Z,5.67
2019-01-26T02:52:54.822Z,5.74
2019-01-26T02:53:54.768Z,5.67
2019-01-26T02:54:54.664Z,5.74
2019-01-26T02:55:54.576Z,5.75
2019-01-26T02:56:54.474Z,5.83
2019-01-26T02:57:54.488Z,5.67
2019-01-26T02:58:54.300Z,5.80
2019-01-26T02:59:54.230Z,5.69
2019-01-26T03:00:54.205Z,5.80
2019-01-26T03:01:54.042Z,5.80
2019-01-26T03:02:53.960Z,5.92
2019-01-26T03:03:53.919Z,5.74
2019-01-26T03:04:53.807Z,5.81
2019-01-26T03:05:53.701Z,5.88
2019-01-26T03:06:53.634Z,5.81
2019-01-26T03:07:53.533Z,5.84
2019-01-26T03:08:53.440Z,5.84
2019-01-26T03:09:53.483Z,5.87
2019-01-26T03:10:53.267Z,5.90
2019-01-26T03:11:53.180Z,5.85
2019-01-26T03:12:53.162Z,5.85
2019-01-26T03:13:53.009Z,5.85
2019-01-26T03:14:52.942Z,5.88
2019-01-26T03:15:52.846Z,5.88
2019-01-26T03:16:52.752Z,5.93
2019-01-26T03:17:52.683Z,5.84
2019-01-26T03:18:52.575Z,5.90
2019-01-26T03:19:52.505Z,5.87
2019-01-26T03:20:52.498Z,5.90
2019-01-26T03:21:52.324Z,5.90
2019-01-26T03:22:52.234Z,5.92
2019-01-26T03:23:52.170Z,5.88
2019-01-26T03:24:52.082Z,6.02
2019-01-26T03:25:51.976Z,5.90
2019-01-26T03:26:51.896Z,5.92
2019-01-26T03:27:51.810Z,5.92
2019-01-26T03:28:51.716Z,5.96
2019-01-26T03:29:51.677Z,5.99
2019-01-26T03:30:51.561Z,5.96
2019-01-26T03:31:51.469Z,5.96
2019-01-26T03:32:51.466Z,5.98
2019-01-26T03:33:51.288Z,5.98
2019-01-26T03:34:51.215Z,5.99
2019-01-26T03:35:51.167Z,6.01
2019-01-26T03:36:51.041Z,5.98
2019-01-26T03:37:50.943Z,5.96
2019-01-26T03:38:50.882Z,5.99
2019-01-26T03:39:50.790Z,5.98
2019-01-26T03:40:50.685Z,6.01
2019-01-26T03:41:50.701Z,5.96
2019-01-26T03:42:50.509Z,6.01
2019-01-26T03:43:50.429Z,5.92
2019-01-26T03:44:50.450Z,6.02
2019-01-26T03:45:50.265Z,6.02
2019-01-26T03:46:50.229Z,6.02
2019-01-26T03:47:50.089Z,5.98
2019-01-26T03:48:50.033Z,5.99
2019-01-26T03:49:49.924Z,6.03
2019-01-26T03:50:49.826Z,5.98
2019-01-26T03:51:50.766Z,5.99
2019-01-26T03:52:49.659Z,6.11
2019-01-26T03:53:49.568Z,6.06
2019-01-26T03:54:49.592Z,6.06
2019-01-26T03:55:49.405Z,5.99
2019-01-26T03:56:49.371Z,6.13
2019-01-26T03:57:49.227Z,6.06
2019-01-26T03:58:49.193Z,6.02
2019-01-26T03:59:49.054Z,6.05
2019-01-26T04:00:48.982Z,5.99
2019-01-26T04:01:48.892Z,6.06
2019-01-26T04:02:48.797Z,6.01
2019-01-26T04:03:48.712Z,6.17
2019-01-26T04:04:48.706Z,6.16
2019-01-26T04:05:48.555Z,6.11
2019-01-26T04:06:48.520Z,6.11
2019-01-26T04:07:48.363Z,6.13
2019-01-26T04:08:49.350Z,6.20
2019-01-26T04:09:48.217Z,6.13
2019-01-26T04:10:48.167Z,6.06
2019-01-26T04:11:48.019Z,6.10
2019-01-26T04:12:48.049Z,6.10
2019-01-26T04:13:47.847Z,6.14
2019-01-26T04:14:47.857Z,6.19
2019-01-26T04:15:47.694Z,6.13
2019-01-26T04:16:47.666Z,6.25
2019-01-26T04:17:47.507Z,6.25
2019-01-26T04:18:47.473Z,6.25
2019-01-26T04:19:47.334Z,6.20
2019-01-26T04:20:47.273Z,6.17
2019-01-26T04:21:47.188Z,6.20
2019-01-26T04:22:47.082Z,6.20
2019-01-26T04:23:46.997Z,6.24
2019-01-26T04:24:47.002Z,6.21
2019-01-26T04:25:46.831Z,6.21
2019-01-26T04:26:46.736Z,6.21
2019-01-26T04:27:46.715Z,6.19
2019-01-26T04:28:46.561Z,6.25
2019-01-26T04:29:46.474Z,6.27
2019-01-26T04:30:46.466Z,6.25
2019-01-26T04:31:46.308Z,6.17
2019-01-26T04:32:46.250Z,6.21
2019-01-26T04:33:46.128Z,6.28
2019-01-26T04:34:46.150Z,6.28
2019-01-26T04:35:45.985Z,6.27
2019-01-26T04:36:45.965Z,6.27
2019-01-26T04:37:45.792Z,6.20
2019-01-26T04:38:45.771Z,6.28
2019-01-26T04:39:45.614Z,6.32
2019-01-26T04:40:45.919Z,6.27
2019-01-26T04:41:45.443Z,6.32
2019-01-26T04:42:45.390Z,6.30
2019-01-26T04:43:45.279Z,6.28
2019-01-26T04:44:45.304Z,6.28
2019-01-26T04:45:45.101Z,6.27
2019-01-26T04:46:45.156Z,6.32
2019-01-26T04:47:44.928Z,6.35
2019-01-26T04:48:44.918Z,6.28
2019-01-26T04:49:44.754Z,6.30
2019-01-26T04:50:44.672Z,6.21
2019-01-26T04:51:44.663Z,6.33
2019-01-26T04:52:44.504Z,6.28
2019-01-26T04:53:44.413Z,6.28
2019-01-26T04:54:44.345Z,6.30
2019-01-26T04:55:44.249Z,6.33
2019-01-26T04:56:44.392Z,6.38
2019-01-26T04:57:44.073Z,6.28
2019-01-26T04:58:44.064Z,6.27
2019-01-26T04:59:43.899Z,6.27
2019-01-26T05:00:43.819Z,6.33
2019-01-26T05:01:43.776Z,6.33
2019-01-26T05:02:43.662Z,6.35
2019-01-26T05:03:43.559Z,6.33
2019-01-26T05:04:43.492Z,6.39
2019-01-26T05:05:43.387Z,6.38
2019-01-26T05:06:43.405Z,6.35
2019-01-26T05:07:43.245Z,6.40
2019-01-26T05:08:43.209Z,6.39
2019-01-26T05:09:43.043Z,6.36
2019-01-26T05:10:43.021Z,6.38
2019-01-26T05:11:42.871Z,6.43
2019-01-26T05:12:46.343Z,6.40
2019-01-26T05:13:42.692Z,6.39
2019-01-26T05:14:42.642Z,6.35
2019-01-26T05:15:42.530Z,6.43
2019-01-26T05:16:42.549Z,6.38
2019-01-26T05:17:42.363Z,6.40
2019-01-26T05:18:51.266Z,6.40
2019-01-26T05:19:42.180Z,6.42
2019-01-26T05:20:42.092Z,6.43
2019-01-26T05:21:42.081Z,6.40
2019-01-26T05:22:41.943Z,6.46
2019-01-26T05:23:41.833Z,6.53
2019-01-26T05:24:41.764Z,6.43
2019-01-26T05:25:41.665Z,6.48
2019-01-26T05:26:41.594Z,6.57
2019-01-26T05:27:41.496Z,6.54
2019-01-26T05:28:41.440Z,6.55
2019-01-26T05:29:41.327Z,6.53
2019-01-26T05:30:43.244Z,6.51
2019-01-26T05:31:41.154Z,6.50
2019-01-26T05:32:41.131Z,6.53
2019-01-26T05:33:40.995Z,6.61
2019-01-26T05:34:40.933Z,6.54
2019-01-26T05:35:40.805Z,6.50
2019-01-26T05:36:40.719Z,6.55
2019-01-26T05:37:40.648Z,6.64
2019-01-26T05:38:40.578Z,6.55
2019-01-26T05:39:40.465Z,6.57
2019-01-26T05:40:40.465Z,6.54
2019-01-26T05:41:40.291Z,6.53
2019-01-26T05:42:40.210Z,6.57
2019-01-26T05:43:40.177Z,6.53
2019-01-26T05:44:40.063Z,6.54
2019-01-26T05:45:39.965Z,6.58
2019-01-26T05:46:39.916Z,6.63
2019-01-26T05:47:47.622Z,6.54
2019-01-26T05:48:39.692Z,6.68
2019-01-26T05:49:39.653Z,6.55
2019-01-26T05:50:39.518Z,6.57
2019-01-26T05:51:39.515Z,6.53
2019-01-26T05:52:39.348Z,6.61
2019-01-26T05:53:40.357Z,6.61
2019-01-26T05:54:39.196Z,6.65
2019-01-26T05:55:39.090Z,6.63
2019-01-26T05:56:39.039Z,6.60
2019-01-26T05:57:38.922Z,6.54
2019-01-26T05:58:38.832Z,6.68
2019-01-26T05:59:38.784Z,6.58
2019-01-26T06:00:38.663Z,6.63
2019-01-26T06:01:38.576Z,6.71
2019-01-26T06:02:38.572Z,6.64
2019-01-26T06:03:38.404Z,6.61
2019-01-26T06:04:38.338Z,6.58
2019-01-26T06:05:38.281Z,6.53
2019-01-26T06:06:38.153Z,6.53
2019-01-26T06:07:38.063Z,6.60
2019-01-26T06:08:37.996Z,6.58
2019-01-26T06:09:37.908Z,6.55
2019-01-26T06:10:37.814Z,6.58
2019-01-26T06:11:37.816Z,6.61
2019-01-26T06:12:37.636Z,6.61
2019-01-26T06:13:37.552Z,6.60
2019-01-26T06:14:37.565Z,6.55
2019-01-26T06:15:37.380Z,6.55
2019-01-26T06:16:37.298Z,6.55
2019-01-26T06:17:37.239Z,6.54
2019-01-26T06:18:37.120Z,6.58
2019-01-26T06:19:37.080Z,6.55
2019-01-26T06:20:36.948Z,6.71
2019-01-26T06:21:36.864Z,6.65
2019-01-26T06:22:36.786Z,6.68
2019-01-26T06:23:36.701Z,6.72
2019-01-26T06:24:36.607Z,6.68
2019-01-26T06:25:36.614Z,6.73
2019-01-26T06:26:36.435Z,6.72
2019-01-26T06:27:36.357Z,6.65
2019-01-26T06:28:36.288Z,6.75
2019-01-26T06:29:36.188Z,6.76
2019-01-26T06:30:36.108Z,6.65
2019-01-26T06:31:36.105Z,6.69
2019-01-26T06:32:35.929Z,6.75
2019-01-26T06:33:35.915Z,6.76
2019-01-26T06:34:35.750Z,6.72
2019-01-26T06:35:35.764Z,6.71
2019-01-26T06:36:35.579Z,6.76
2019-01-26T06:37:35.535Z,6.69
2019-01-26T06:38:35.408Z,6.73
2019-01-26T06:39:35.341Z,6.72
2019-01-26T06:40:35.263Z,6.76
2019-01-26T06:41:35.252Z,6.71
2019-01-26T06:42:35.067Z,6.68
2019-01-26T06:43:35.063Z,6.71
2019-01-26T06:44:34.894Z,6.69
2019-01-26T06:45:38.282Z,6.69
2019-01-26T06:46:35.017Z,6.68
2019-01-26T06:47:34.679Z,6.69
2019-01-26T06:48:34.559Z,6.75
2019-01-26T06:49:34.490Z,6.72
2019-01-26T06:50:34.397Z,6.76
2019-01-26T06:51:34.294Z,6.72
2019-01-26T06:52:35.399Z,6.72
2019-01-26T06:53:34.123Z,6.68
2019-01-26T06:54:34.040Z,6.76
2019-01-26T06:55:34.057Z,6.79
2019-01-26T06:56:33.878Z,6.79
2019-01-26T06:57:40.790Z,6.64
2019-01-26T06:58:33.696Z,6.69
2019-01-26T06:59:33.635Z,6.69
2019-01-26T07:00:33.535Z,6.65
2019-01-26T07:01:33.454Z,6.71
2019-01-26T07:02:33.454Z,6.69
2019-01-26T07:03:33.268Z,6.79
2019-01-26T07:04:33.191Z,6.81
2019-01-26T07:05:33.110Z,6.79
2019-01-26T07:06:33.030Z,6.81
2019-01-26T07:07:32.932Z,6.79
2019-01-26T07:08:32.850Z,6.83
2019-01-26T07:09:32.763Z,6.76
2019-01-26T07:10:32.675Z,6.82
2019-01-26T07:11:32.624Z,6.83
2019-01-26T07:12:32.513Z,6.87
2019-01-26T07:13:32.506Z,6.91
2019-01-26T07:14:32.326Z,6.86
2019-01-26T07:15:34.266Z,6.83
2019-01-26T07:16:32.174Z,6.91
2019-01-26T07:17:32.068Z,6.87
2019-01-26T07:18:32.030Z,6.82
2019-01-26T07:19:31.903Z,6.79
2019-01-26T07:20:31.819Z,6.82
2019-01-26T07:21:31.775Z,6.81
2019-01-26T07:22:31.645Z,6.83
2019-01-26T07:23:31.653Z,6.87
2019-01-26T07:24:31.471Z,6.82
2019-01-26T07:25:31.391Z,6.83
2019-01-26T07:26:31.328Z,6.82
2019-01-26T07:27:31.277Z,6.87
2019-01-26T07:28:31.135Z,6.79
2019-01-26T07:29:31.080Z,6.96
2019-01-26T07:30:30.955Z,6.93
2019-01-26T07:31:30.891Z,6.93
2019-01-26T07:32:30.828Z,6.96
2019-01-26T07:33:30.705Z,6.91
2019-01-26T07:34:30.613Z,6.97
2019-01-26T07:35:30.612Z,6.99
2019-01-26T07:36:30.442Z,7.00
2019-01-26T07:37:30.458Z,6.94
2019-01-26T07:38:30.279Z,6.90
2019-01-26T07:39:30.224Z,6.91
2019-01-26T07:40:30.108Z,6.93
2019-01-26T07:41:30.017Z,6.93
2019-01-26T07:42:29.985Z,6.94
2019-01-26T07:43:29.843Z,6.93
2019-01-26T07:44:29.766Z,6.93
2019-01-26T07:45:29.758Z,6.97
2019-01-26T07:46:29.591Z,6.97
2019-01-26T07:47:29.522Z,6.97
2019-01-26T07:48:29.470Z,6.99
2019-01-26T07:49:29.334Z,6.94
2019-01-26T07:50:29.242Z,6.96
2019-01-26T07:51:29.181Z,7.00
2019-01-26T07:52:29.087Z,6.96
2019-01-26T07:53:28.988Z,7.00
2019-01-26T07:54:29.002Z,7.05
2019-01-26T07:55:28.823Z,6.93
2019-01-26T07:56:28.740Z,6.93
2019-01-26T07:57:28.752Z,6.91
2019-01-26T07:58:28.559Z,6.96
2019-01-26T07:59:28.518Z,7.00
2019-01-26T08:00:28.393Z,6.97
2019-01-26T08:01:28.329Z,6.81
2019-01-26T08:02:28.258Z,6.90
2019-01-26T08:03:28.243Z,6.96
2019-01-26T08:04:28.048Z,6.93
2019-01-26T08:05:28.057Z,6.93
2019-01-26T08:06:27.881Z,6.96
2019-01-26T08:07:28.884Z,6.94
2019-01-26T08:08:27.727Z,6.93
2019-01-26T08:09:27.669Z,6.87
2019-01-26T08:10:27.533Z,6.90
2019-01-26T08:11:27.450Z,6.94
2019-01-26T08:12:27.384Z,6.82
2019-01-26T08:13:27.293Z,6.82
2019-01-26T08:14:27.199Z,6.91
2019-01-26T08:15:27.200Z,6.90
2019-01-26T08:16:27.020Z,7.01
2019-01-26T08:17:26.934Z,6.96
2019-01-26T08:18:26.944Z,7.01
2019-01-26T08:19:26.762Z,6.93
2019-01-26T08:20:26.683Z,6.94
2019-01-26T08:21:26.590Z,6.94
2019-01-26T08:22:26.530Z,6.93
2019-01-26T08:23:26.441Z,6.94
2019-01-26T08:24:26.446Z,6.96
2019-01-26T08:25:26.253Z,7.00
2019-01-26T08:26:26.166Z,6.91
2019-01-26T08:27:26.163Z,6.99
2019-01-26T08:28:26.017Z,6.93
2019-01-26T08:29:25.916Z,7.05
2019-01-26T08:30:27.921Z,7.00
2019-01-26T08:31:25.745Z,6.94
2019-01-26T08:32:25.658Z,7.01
2019-01-26T08:33:25.614Z,6.86
2019-01-26T08:34:25.479Z,6.96
2019-01-26T08:35:25.397Z,6.91
2019-01-26T08:36:25.401Z,6.94
2019-01-26T08:37:25.229Z,6.94
2019-01-26T08:38:25.240Z,6.91
2019-01-26T08:39:25.060Z,6.96
2019-01-26T08:40:25.030Z,6.90
2019-01-26T08:41:24.889Z,6.90
2019-01-26T08:42:26.872Z,6.94
2019-01-26T08:43:24.748Z,6.96
2019-01-26T08:44:24.739Z,6.90
2019-01-26T08:45:24.542Z,6.94
2019-01-26T08:46:24.548Z,6.99
2019-01-26T08:47:24.382Z,6.99
2019-01-26T08:48:31.161Z,7.00
2019-01-26T08:49:24.214Z,7.04
2019-01-26T08:50:24.165Z,7.04
2019-01-26T08:51:24.035Z,6.97
2019-01-26T08:52:23.946Z,7.00
2019-01-26T08:53:23.877Z,6.89
2019-01-26T08:54:23.792Z,6.90
2019-01-26T08:55:23.688Z,6.96
2019-01-26T08:56:23.694Z,7.00
2019-01-26T08:57:23.514Z,7.00
2019-01-26T08:58:23.438Z,6.94
2019-01-26T08:59:23.367Z,7.00
2019-01-26T09:00:23.315Z,7.04
2019-01-26T09:01:23.174Z,6.99
2019-01-26T09:02:25.519Z,6.97
2019-01-26T09:03:23.025Z,6.96
2019-01-26T09:04:22.958Z,6.96
2019-01-26T09:05:22.832Z,7.00
2019-01-26T09:06:23.764Z,7.00
2019-01-26T09:07:22.662Z,6.90
2019-01-26T09:08:22.575Z,7.04
2019-01-26T09:09:22.555Z,6.93
2019-01-26T09:10:22.428Z,7.05
2019-01-26T09:11:22.321Z,6.90
2019-01-26T09:12:22.270Z,6.96
2019-01-26T09:13:22.150Z,6.97
2019-01-26T09:14:22.072Z,6.94
2019-01-26T09:15:22.021Z,6.99
2019-01-26T09:16:21.904Z,6.94
2019-01-26T09:17:21.810Z,6.99
2019-01-26T09:18:21.733Z,6.91
2019-01-26T09:19:21.643Z,6.91
2019-01-26T09:20:21.590Z,6.90
2019-01-26T09:21:21.469Z,6.93
2019-01-26T09:22:21.387Z,6.97
2019-01-26T09:23:21.318Z,6.94
2019-01-26T09:24:21.216Z,7.04
2019-01-26T09:25:21.140Z,6.90
2019-01-26T09:26:21.139Z,6.96
2019-01-26T09:27:20.956Z,6.96
2019-01-26T09:28:20.869Z,6.96
2019-01-26T09:29:27.816Z,6.97
2019-01-26T09:30:20.716Z,6.97
2019-01-26T09:31:20.614Z,6.96
2019-01-26T09:32:20.566Z,6.93
2019-01-26T09:33:20.442Z,6.94
2019-01-26T09:34:20.366Z,6.89
2019-01-26T09:35:20.314Z,6.87
2019-01-26T09:36:20.198Z,7.05
2019-01-26T09:37:20.101Z,6.93
2019-01-26T09:38:20.215Z,7.08
2019-01-26T09:39:19.937Z,6.97
2019-01-26T09:40:20.059Z,6.96
2019-01-26T09:41:19.767Z,7.01
2019-01-26T09:42:19.830Z,6.99
2019-01-26T09:43:19.598Z,7.09
2019-01-26T09:44:19.640Z,7.00
2019-01-26T09:45:19.420Z,7.09
2019-01-26T09:46:19.355Z,7.05
2019-01-26T09:47:20.224Z,7.00
2019-01-26T09:48:19.171Z,7.05
2019-01-26T09:49:19.082Z,7.00
2019-01-26T09:50:19.050Z,7.09
2019-01-26T09:51:18.922Z,7.07
2019-01-26T09:52:18.829Z,7.04
2019-01-26T09:53:18.768Z,7.12
2019-01-26T09:54:18.660Z,7.12
2019-01-26T09:55:18.578Z,7.08
2019-01-26T09:56:18.618Z,7.07
2019-01-26T09:57:18.400Z,7.08
2019-01-26T09:58:19.894Z,7.09
2019-01-26T09:59:19.419Z,7.07
2019-01-26T10:00:18.141Z,7.14
2019-01-26T10:01:18.076Z,7.15
2019-01-26T10:02:18.120Z,7.16
2019-01-26T10:03:17.893Z,7.15
2019-01-26T10:04:17.807Z,7.14
2019-01-26T10:05:17.730Z,7.18
2019-01-26T10:06:17.651Z,7.12
2019-01-26T10:07:17.547Z,7.18
2019-01-26T10:08:17.547Z,7.19
2019-01-26T10:09:17.382Z,7.12
2019-01-26T10:10:17.298Z,7.16
2019-01-26T10:11:17.392Z,7.15
2019-01-26T10:12:17.121Z,7.16
2019-01-26T10:13:17.044Z,7.21
2019-01-26T10:14:16.973Z,7.11
2019-01-26T10:15:16.870Z,7.15
2019-01-26T10:16:16.804Z,7.18
2019-01-26T10:17:16.786Z,7.23
2019-01-26T10:18:16.610Z,7.18
2019-01-26T10:19:16.596Z,7.19
2019-01-26T10:20:16.444Z,7.15
2019-01-26T10:21:16.450Z,7.15
2019-01-26T10:22:16.275Z,7.29
2019-01-26T10:23:16.193Z,7.23
2019-01-26T10:24:16.220Z,7.27
2019-01-26T10:25:16.021Z,7.27
2019-01-26T10:26:15.953Z,7.24
2019-01-26T10:27:16.032Z,7.29
2019-01-26T10:28:15.763Z,7.26
2019-01-26T10:29:15.682Z,7.26
2019-01-26T10:30:15.643Z,7.26
2019-01-26T10:31:15.519Z,7.39
2019-01-26T10:32:15.426Z,7.27
2019-01-26T10:33:15.352Z,7.39
2019-01-26T10:34:15.250Z,7.32
2019-01-26T10:35:15.268Z,7.34
2019-01-26T10:36:15.096Z,7.33
2019-01-26T10:37:15.001Z,7.34
2019-01-26T10:38:14.978Z,7.37
2019-01-26T10:39:14.829Z,7.36
2019-01-26T10:40:14.739Z,7.47
2019-01-26T10:41:14.724Z,7.48
2019-01-26T10:42:14.579Z,7.51
2019-01-26T10:43:14.490Z,7.55
2019-01-26T10:44:14.507Z,7.54
2019-01-26T10:45:14.315Z,7.55
2019-01-26T10:46:14.296Z,7.47
2019-01-26T10:47:14.182Z,7.55
2019-01-26T10:48:14.059Z,7.60
2019-01-26T10:49:13.974Z,7.63
2019-01-26T10:50:13.896Z,7.67
2019-01-26T10:51:13.805Z,7.63
2019-01-26T10:52:13.769Z,7.73
2019-01-26T10:53:13.651Z,7.76
2019-01-26T10:54:13.554Z,7.73
2019-01-26T10:55:13.563Z,7.70
2019-01-26T10:56:13.383Z,7.71
2019-01-26T10:57:13.314Z,7.82
2019-01-26T10:58:13.273Z,7.81
2019-01-26T10:59:13.140Z,7.86
2019-01-26T11:00:13.047Z,7.79
2019-01-26T11:01:12.989Z,7.77
2019-01-26T11:02:12.899Z,7.77
2019-01-26T11:03:12.797Z,7.82
2019-01-26T11:04:12.803Z,7.88
2019-01-26T11:05:12.621Z,7.88
2019-01-26T11:06:12.612Z,7.85
2019-01-26T11:07:12.466Z,7.84
2019-01-26T11:08:12.391Z,7.96
2019-01-26T11:09:12.328Z,7.94
2019-01-26T11:10:12.199Z,7.94
2019-01-26T11:11:12.113Z,7.88
2019-01-26T11:12:12.075Z,8.03
2019-01-26T11:13:11.962Z,7.95
2019-01-26T11:14:11.953Z,7.94
2019-01-26T11:15:11.775Z,8.03
2019-01-26T11:16:11.763Z,7.89
2019-01-26T11:17:11.629Z,7.96
2019-01-26T11:18:11.524Z,8.00
2019-01-26T11:19:11.443Z,8.04
2019-01-26T11:20:19.368Z,8.03
2019-01-26T11:21:11.275Z,8.00
2019-01-26T11:22:11.201Z,8.00
2019-01-26T11:23:11.098Z,8.09
2019-01-26T11:24:11.102Z,8.03
2019-01-26T11:25:10.937Z,8.03
2019-01-26T11:26:12.956Z,8.17
2019-01-26T11:27:10.785Z,8.12
2019-01-26T11:28:10.689Z,8.17
2019-01-26T11:29:10.593Z,8.17
2019-01-26T11:30:10.526Z,8.14
2019-01-26T11:31:10.429Z,8.14
2019-01-26T11:32:10.340Z,8.20
2019-01-26T11:33:11.294Z,8.24
2019-01-26T11:34:10.176Z,8.20
2019-01-26T11:35:10.093Z,8.24
2019-01-26T11:36:10.056Z,8.29
2019-01-26T11:37:09.917Z,8.27
2019-01-26T11:38:09.850Z,8.24
2019-01-26T11:39:09.769Z,8.22
2019-01-26T11:40:09.675Z,8.22
2019-01-26T11:41:09.583Z,8.36
2019-01-26T11:42:09.586Z,8.49
2019-01-26T11:43:09.435Z,8.50
2019-01-26T11:44:09.329Z,8.58
2019-01-26T11:45:09.300Z,8.52
2019-01-26T11:46:09.165Z,8.55
2019-01-26T11:47:09.084Z,8.57
2019-01-26T11:48:09.053Z,8.50
2019-01-26T11:49:14.924Z,8.63
2019-01-26T11:50:08.829Z,8.79
2019-01-26T11:51:08.826Z,8.67
2019-01-26T11:52:08.668Z,8.73
2019-01-26T11:53:08.606Z,8.61
2019-01-26T11:54:08.549Z,8.55
2019-01-26T11:55:08.428Z,8.68
2019-01-26T11:56:08.342Z,8.73
2019-01-26T11:57:08.273Z,8.64
2019-01-26T11:58:08.186Z,8.73
2019-01-26T11:59:08.167Z,8.76
2019-01-26T12:00:07.990Z,8.80
2019-01-26T12:01:07.974Z,8.82
2019-01-26T12:02:07.827Z,8.78
2019-01-26T12:03:07.764Z,8.79
2019-01-26T12:04:07.690Z,8.67
2019-01-26T12:05:07.578Z,8.61
2019-01-26T12:06:07.491Z,8.58
2019-01-26T12:07:07.507Z,8.50
2019-01-26T12:08:07.367Z,8.54
2019-01-26T12:09:07.236Z,8.65
2019-01-26T12:10:07.169Z,8.63
2019-01-26T12:11:07.129Z,8.64
2019-01-26T12:12:06.991Z,8.58
2019-01-26T12:13:06.900Z,8.60
2019-01-26T12:14:06.837Z,8.60
2019-01-26T12:15:06.846Z,8.63
2019-01-26T12:16:06.659Z,8.71
2019-01-26T12:17:06.568Z,8.68
2019-01-26T12:18:06.559Z,8.78
2019-01-26T12:19:06.413Z,8.76
2019-01-26T12:20:13.331Z,8.88
2019-01-26T12:21:06.234Z,8.88
2019-01-26T12:22:06.176Z,8.96
2019-01-26T12:23:06.070Z,8.98
2019-01-26T12:24:06.003Z,9.04
2019-01-26T12:25:05.995Z,9.13
2019-01-26T12:26:05.813Z,9.08
2019-01-26T12:27:05.727Z,9.13
2019-01-26T12:28:05.652Z,9.12
2019-01-26T12:29:05.577Z,9.15
2019-01-26T12:30:05.513Z,9.15
2019-01-26T12:31:05.409Z,9.08
2019-01-26T12:32:06.347Z,9.10
2019-01-26T12:33:05.228Z,9.08
2019-01-26T12:34:05.264Z,9.06
2019-01-26T12:35:05.071Z,9.16
2019-01-26T12:36:05.052Z,9.08
2019-01-26T12:37:04.901Z,9.10
2019-01-26T12:38:04.853Z,9.10
2019-01-26T12:39:04.747Z,9.16
2019-01-26T12:40:04.662Z,9.27
2019-01-26T12:41:04.573Z,9.20
2019-01-26T12:42:04.575Z,9.27
2019-01-26T12:43:04.404Z,9.26
2019-01-26T12:44:05.410Z,9.27
2019-01-26T12:45:04.244Z,9.23
2019-01-26T12:46:04.204Z,9.23
2019-01-26T12:47:04.061Z,9.27
2019-01-26T12:48:03.982Z,9.37
2019-01-26T12:49:04.012Z,9.31
2019-01-26T12:50:03.832Z,9.27
2019-01-26T12:51:03.729Z,9.15
2019-01-26T12:52:03.723Z,9.12
2019-01-26T12:53:03.571Z,9.15
2019-01-26T12:54:03.478Z,9.03
2019-01-26T12:55:03.478Z,9.15
2019-01-26T12:56:03.316Z,9.13
2019-01-26T12:57:03.234Z,9.13
2019-01-26T12:58:03.253Z,9.15
2019-01-26T12:59:03.061Z,9.08
2019-01-26T13:00:03.100Z,9.17
2019-01-26T13:01:02.893Z,9.23
2019-01-26T13:02:09.426Z,9.24
2019-01-26T13:03:02.727Z,9.22
2019-01-26T13:04:02.643Z,9.20
2019-01-26T13:05:02.613Z,9.30
2019-01-26T13:06:02.481Z,9.20
2019-01-26T13:07:02.401Z,9.19
2019-01-26T13:08:04.342Z,9.24
2019-01-26T13:09:02.226Z,9.10
2019-01-26T13:10:02.158Z,9.13
2019-01-26T13:11:02.065Z,9.10
2019-01-26T13:12:02.018Z,9.15
2019-01-26T13:13:01.887Z,9.27
2019-01-26T13:14:01.809Z,9.22
2019-01-26T13:15:01.739Z,9.38
2019-01-26T13:16:01.739Z,9.41
2019-01-26T13:17:01.556Z,9.41